Time;durP1;ratioP1;P1;durP2;ratioP2;P2;SDS_P1;SDS_P2;PMS_P1;PMS_P2;Temp;Humidity;BMP_temperature;BMP_pressure;BME280_temperature;BME280_humidity;BME280_pressure;Samples;Min_cycle;Max_cycle;Signal;HPM_P1;HPM_P2
2021/09/01 00:00:25;;;;;;;13.43;8.58;;;;;;;13.65;100.00;100577.62;2871886;83;21020;-67
2021/09/01 00:04:28;;;;;;;13.80;9.23;;;;;;;13.60;100.00;100587.89;2871784;82;20972;-67
2021/09/01 00:08:30;;;;;;;12.82;7.53;;;;;;;13.53;100.00;100591.60;2871734;83;20992;-67
2021/09/01 00:12:32;;;;;;;11.33;8.93;;;;;;;13.48;100.00;100601.86;2871539;82;21031;-68
2021/09/01 00:16:34;;;;;;;21.12;9.28;;;;;;;13.45;100.00;100606.63;2871611;83;20960;-68
2021/09/01 00:20:36;;;;;;;10.05;7.60;;;;;;;13.42;100.00;100607.23;2870807;83;21028;-68
2021/09/01 00:24:37;;;;;;;8.53;7.33;;;;;;;13.41;100.00;100612.73;2871019;83;20964;-68
2021/09/01 00:28:39;;;;;;;10.65;7.47;;;;;;;13.41;100.00;100618.90;2871166;83;20992;-68
2021/09/01 00:32:41;;;;;;;16.00;10.55;;;;;;;13.44;100.00;100631.19;2871175;83;20944;-68
2021/09/01 00:36:42;;;;;;;7.28;6.62;;;;;;;13.47;100.00;100632.24;2873802;82;21047;-68
2021/09/01 00:40:44;;;;;;;8.78;6.75;;;;;;;13.45;100.00;100638.22;2905216;82;21006;-68
2021/09/01 00:44:46;;;;;;;10.78;7.05;;;;;;;13.44;100.00;100639.20;2905433;82;20990;-68
2021/09/01 00:48:51;;;;;;;15.28;7.65;;;;;;;13.41;100.00;100645.62;2905364;81;21366;-68
2021/09/01 00:52:54;;;;;;;18.15;7.58;;;;;;;13.39;100.00;100638.23;2895970;82;21063;-68
2021/09/01 00:57:02;;;;;;;11.30;6.85;;;;;;;13.41;100.00;100640.78;2895775;82;21039;-67
2021/09/01 01:01:16;;;;;;;10.23;8.70;;;;;;;13.40;100.00;100643.93;2895495;82;21039;-67
2021/09/01 01:05:18;;;;;;;13.65;8.20;;;;;;;13.37;100.00;100640.20;2874314;82;21054;-68
2021/09/01 01:09:19;;;;;;;15.23;8.25;;;;;;;13.40;100.00;100652.45;2895915;82;20967;-68
2021/09/01 01:13:21;;;;;;;11.18;8.75;;;;;;;13.45;100.00;100646.71;2895773;82;21070;-68
2021/09/01 01:17:23;;;;;;;9.83;6.78;;;;;;;13.51;100.00;100656.88;2895876;82;21010;-68
2021/09/01 01:21:29;;;;;;;13.95;8.73;;;;;;;13.55;100.00;100659.12;2895741;82;21089;-68
2021/09/01 01:25:34;;;;;;;;;;;;;;;13.60;100.00;100663.23;2898381;82;20920;-67
2021/09/01 01:29:36;;;;;;;11.25;7.65;;;;;;;13.62;100.00;100666.11;2895982;82;20114;-67
2021/09/01 01:33:37;;;;;;;11.57;8.98;;;;;;;13.65;100.00;100666.34;2895621;82;21003;-68
2021/09/01 01:37:41;;;;;;;10.10;7.45;;;;;;;13.66;100.00;100668.88;2895727;82;20991;-68
2021/09/01 01:41:42;;;;;;;17.67;9.45;;;;;;;13.73;100.00;100665.15;2895188;82;21003;-68
2021/09/01 01:45:46;;;;;;;10.95;7.90;;;;;;;13.76;100.00;100659.55;2895661;82;21011;-68
2021/09/01 01:49:48;;;;;;;10.63;9.05;;;;;;;13.79;100.00;100670.44;2887632;82;21075;-68
2021/09/01 01:53:49;;;;;;;10.98;8.75;;;;;;;13.77;100.00;100662.58;2833673;84;21023;-68
2021/09/01 01:57:51;;;;;;;11.18;8.93;;;;;;;13.74;100.00;100658.81;2833901;82;21432;-68
2021/09/01 02:01:53;;;;;;;17.60;10.53;;;;;;;13.75;100.00;100665.85;2833927;84;21011;-68
2021/09/01 02:05:55;;;;;;;15.23;10.03;;;;;;;13.78;100.00;100664.27;2833765;83;21014;-68
2021/09/01 02:09:57;;;;;;;11.08;8.78;;;;;;;13.85;100.00;100668.07;2834019;84;21011;-68
2021/09/01 02:13:58;;;;;;;10.43;8.30;;;;;;;13.84;100.00;100674.41;2833907;84;21027;-68
2021/09/01 02:18:00;;;;;;;14.20;9.08;;;;;;;13.82;100.00;100675.03;2833979;84;20943;-68
2021/09/01 02:22:02;;;;;;;8.95;8.00;;;;;;;13.75;100.00;100681.89;2833968;84;21015;-68
2021/09/01 02:26:04;;;;;;;17.17;9.50;;;;;;;13.69;100.00;100685.13;2833925;84;20987;-68
2021/09/01 02:30:08;;;;;;;11.33;8.45;;;;;;;13.68;100.00;100682.95;2833932;84;20975;-68
2021/09/01 02:34:09;;;;;;;10.10;8.20;;;;;;;13.68;100.00;100681.63;2833675;84;20944;-68
2021/09/01 02:38:11;;;;;;;10.82;8.13;;;;;;;13.66;100.00;100690.75;2833971;84;20971;-68
2021/09/01 02:42:13;;;;;;;11.90;8.63;;;;;;;13.63;100.00;100688.34;2833858;84;20967;-68
2021/09/01 02:46:15;;;;;;;11.00;8.08;;;;;;;13.61;100.00;100679.12;2833721;84;20959;-68
2021/09/01 02:50:17;;;;;;;13.65;9.00;;;;;;;13.59;100.00;100686.94;2839153;82;20973;-68
2021/09/01 02:54:19;;;;;;;16.45;9.10;;;;;;;13.53;100.00;100690.48;2856570;83;21477;-68
2021/09/01 02:58:21;;;;;;;13.68;9.35;;;;;;;13.48;100.00;100686.05;2853183;83;20972;-68
2021/09/01 03:02:22;;;;;;;11.93;7.47;;;;;;;13.43;100.00;100688.28;2855093;82;21023;-68
2021/09/01 03:06:24;;;;;;;8.40;7.55;;;;;;;13.39;100.00;100684.99;2838811;83;20980;-68
2021/09/01 03:10:26;;;;;;;13.55;7.65;;;;;;;13.39;100.00;100684.16;2841515;83;21055;-67
2021/09/01 03:14:27;;;;;;;16.40;9.28;;;;;;;13.39;100.00;100685.50;2860200;83;21000;-68
2021/09/01 03:18:29;;;;;;;12.98;10.30;;;;;;;13.40;100.00;100684.52;2861720;83;21024;-68
2021/09/01 03:22:31;;;;;;;10.53;8.30;;;;;;;13.38;100.00;100684.64;2859836;82;21044;-72
2021/09/01 03:26:34;;;;;;;13.28;8.88;;;;;;;13.37;100.00;100692.80;2861903;83;21015;-72
2021/09/01 03:30:36;;;;;;;9.95;7.25;;;;;;;13.35;100.00;100704.95;2862095;83;21000;-72
2021/09/01 03:34:38;;;;;;;9.23;7.60;;;;;;;13.31;100.00;100710.21;2862180;82;21055;-72
2021/09/01 03:38:39;;;;;;;16.75;9.93;;;;;;;13.32;100.00;100709.70;2862058;82;21008;-72
2021/09/01 03:42:41;;;;;;;11.05;8.68;;;;;;;13.33;100.00;100704.72;2861880;83;20965;-72
2021/09/01 03:46:43;;;;;;;14.55;8.38;;;;;;;13.34;100.00;100705.07;2856993;83;20992;-72
2021/09/01 03:50:45;;;;;;;13.38;9.20;;;;;;;13.30;100.00;100699.17;2850112;82;21528;-72
2021/09/01 03:54:47;;;;;;;10.85;7.03;;;;;;;13.32;100.00;100702.55;2837452;84;21094;-72
2021/09/01 03:58:48;;;;;;;13.38;9.13;;;;;;;13.33;100.00;100700.23;2837404;84;20992;-72
2021/09/01 04:02:50;;;;;;;12.28;8.28;;;;;;;13.39;100.00;100712.22;2837088;82;21019;-70
2021/09/01 04:06:52;;;;;;;12.90;9.10;;;;;;;13.41;100.00;100706.25;2836548;84;20984;-69
2021/09/01 04:10:53;;;;;;;15.98;10.58;;;;;;;13.43;100.00;100707.81;2742287;86;21020;-68
2021/09/01 04:14:55;;;;;;;9.40;8.35;;;;;;;13.40;100.00;100712.58;2813593;84;20996;-69
2021/09/01 04:18:57;;;;;;;11.83;9.00;;;;;;;13.40;100.00;100717.91;2754090;83;20988;-69
2021/09/01 04:22:58;;;;;;;17.35;9.85;;;;;;;13.42;100.00;100721.30;2829891;82;21059;-69
2021/09/01 04:27:00;;;;;;;11.50;8.33;;;;;;;13.46;100.00;100733.91;2738471;87;20988;-69
2021/09/01 04:31:02;;;;;;;14.33;8.38;;;;;;;13.49;100.00;100720.31;2800052;85;21036;-68
2021/09/01 04:35:04;;;;;;;13.72;9.33;;;;;;;13.55;100.00;100727.27;2837405;84;21051;-70
2021/09/01 04:39:06;;;;;;;13.45;9.85;;;;;;;13.89;100.00;100744.86;2837293;84;20972;-70
2021/09/01 04:43:08;;;;;;;12.45;8.58;;;;;;;14.33;100.00;100744.50;2738744;87;20996;-70
2021/09/01 04:47:09;;;;;;;9.00;7.97;;;;;;;14.70;99.40;100739.80;2804344;85;21004;-70
2021/09/01 04:51:11;;;;;;;8.75;7.72;;;;;;;15.03;97.01;100741.35;2846998;82;21028;-71
2021/09/01 04:55:15;;;;;;;11.85;7.80;;;;;;;15.10;95.18;100743.80;2871506;81;20985;-70
2021/09/01 04:59:16;;;;;;;9.43;7.33;;;;;;;14.78;94.37;100742.31;2872005;83;21004;-70
2021/09/01 05:03:18;;;;;;;11.12;8.00;;;;;;;14.47;95.71;100738.39;2871903;83;21001;-70
2021/09/01 05:07:20;;;;;;;10.58;8.13;;;;;;;14.78;97.52;100742.31;2871919;83;20977;-70
2021/09/01 05:11:22;;;;;;;12.07;8.28;;;;;;;14.72;95.66;100750.41;2871947;83;21011;-70
2021/09/01 05:15:24;;;;;;;10.18;7.17;;;;;;;15.05;96.89;100747.41;2871948;83;21024;-70
2021/09/01 05:19:25;;;;;;;12.45;8.58;;;;;;;15.61;95.59;100746.19;2872561;79;20976;-71
2021/09/01 05:23:35;;;;;;;10.95;7.87;;;;;;;15.92;93.18;100745.94;2872362;83;21051;-71
2021/09/01 05:27:40;;;;;;;9.95;6.70;;;;;;;16.20;92.96;100753.95;2872093;83;20968;-71
2021/09/01 05:31:42;;;;;;;14.98;8.73;;;;;;;16.50;89.96;100758.60;2872032;82;21024;-72
2021/09/01 05:35:44;;;;;;;11.20;7.17;;;;;;;16.68;89.66;100760.79;2872268;83;20988;-72
2021/09/01 05:39:49;;;;;;;10.88;9.33;;;;;;;16.78;88.10;100766.59;2872262;79;21023;-72
2021/09/01 05:43:51;;;;;;;10.67;7.70;;;;;;;16.55;86.33;100761.18;2872525;83;21007;-71
2021/09/01 05:47:57;;;;;;;12.03;7.08;;;;;;;16.24;88.38;100764.25;2872178;82;20980;-71
2021/09/01 05:51:59;;;;;;;12.43;6.65;;;;;;;15.89;88.75;100768.53;2886676;82;21048;-72
2021/09/01 05:56:06;;;;;;;10.98;7.35;;;;;;;15.74;90.41;100768.64;2905801;82;21072;-71
2021/09/01 06:00:15;;;;;;;12.47;8.38;;;;;;;15.48;91.60;100776.84;2905830;81;21004;-72
2021/09/01 06:04:17;;;;;;;9.00;7.37;;;;;;;15.49;92.17;100777.70;2905336;82;21036;-72
2021/09/01 06:08:23;;;;;;;13.13;8.40;;;;;;;15.70;92.38;100782.83;2905780;82;21024;-72
2021/09/01 06:12:27;;;;;;;;;;;;;;;15.99;91.38;100781.39;2908542;82;21016;-72
2021/09/01 06:16:29;;;;;;;10.60;8.83;;;;;;;16.30;90.19;100781.56;2905894;82;20142;-72
2021/09/01 06:49:42;;;;;;;10.75;8.05;;;;;;;17.92;84.56;100805.67;2867619;81;21051;-71
2021/09/01 06:53:44;;;;;;;11.43;8.30;;;;;;;18.02;85.78;100812.30;2918315;80;21050;-71
2021/09/01 06:57:47;;;;;;;13.22;8.25;;;;;;;18.27;84.24;100810.03;2865836;82;21042;-72
2021/09/01 07:01:49;;;;;;;7.75;6.97;;;;;;;18.38;83.98;100803.49;2918394;81;20955;-73
2021/09/01 07:05:57;;;;;;;8.88;7.20;;;;;;;18.47;82.70;100798.11;2865774;83;21049;-70
2021/09/01 07:09:58;;;;;;;10.65;7.05;;;;;;;18.60;82.68;100790.40;2918208;81;20975;-72
2021/09/01 07:14:00;;;;;;;10.20;7.97;;;;;;;18.46;82.35;100805.36;2861078;83;20947;-71
2021/09/01 07:18:09;;;;;;;9.40;8.40;;;;;;;18.61;82.80;100797.98;2918673;80;21010;-71
2021/09/01 07:22:11;;;;;;;12.43;8.40;;;;;;;18.73;84.18;100802.55;2866309;83;20999;-70
2021/09/01 07:26:13;;;;;;;13.53;8.50;;;;;;;19.07;83.34;100801.06;2918621;81;21051;-73
2021/09/01 07:30:28;;;;;;;14.10;9.20;;;;;;;19.32;83.30;100808.30;2865668;83;20983;-73
2021/09/01 07:34:30;;;;;;;11.43;8.35;;;;;;;19.55;82.60;100813.30;2918473;81;20984;-71
2021/09/01 07:38:50;;;;;;;10.28;6.42;;;;;;;19.54;81.98;100812.11;2865133;83;20967;-70
2021/09/01 07:42:52;;;;;;;15.80;6.37;;;;;;;19.16;81.09;100815.88;2918116;81;21457;-73
2021/09/01 07:46:54;;;;;;;9.95;7.00;;;;;;;19.21;81.44;100824.32;2863113;83;20984;-71
2021/09/01 07:51:14;;;;;;;7.40;5.60;;;;;;;19.25;81.33;100830.53;2917374;81;20983;-72
2021/09/01 07:55:16;;;;;;;10.28;6.37;;;;;;;19.41;80.57;100828.84;2859194;83;20983;-73
2021/09/01 07:59:18;;;;;;;9.05;5.50;;;;;;;19.30;79.99;100823.29;2917863;81;20983;-73
2021/09/01 08:03:32;;;;;;;7.42;4.92;;;;;;;19.28;81.73;100830.71;2859557;83;20919;-73
2021/09/01 08:07:35;;;;;;;8.75;5.90;;;;;;;19.44;80.35;100833.88;2917529;81;20963;-71
2021/09/01 08:11:36;;;;;;;6.25;5.12;;;;;;;19.51;80.56;100838.95;2858692;83;20967;-72
2021/09/01 08:15:59;;;;;;;6.80;4.95;;;;;;;19.69;80.64;100848.17;2917163;81;20979;-73
2021/09/01 08:20:13;;;;;;;14.03;5.45;;;;;;;19.66;80.52;100843.66;2859243;83;20983;-74
2021/09/01 08:24:15;;;;;;;12.10;6.25;;;;;;;19.75;79.93;100849.34;2918078;81;20947;-74
2021/09/01 08:28:18;;;;;;;6.30;4.45;;;;;;;19.88;80.02;100852.02;2859495;82;20964;-72
2021/09/01 08:32:20;;;;;;;7.47;5.28;;;;;;;19.96;78.48;100843.92;2917924;81;20947;-74
2021/09/01 08:36:24;;;;;;;6.47;4.80;;;;;;;20.11;78.60;100843.53;2859427;83;21011;-73
2021/09/01 08:40:26;;;;;;;7.27;5.67;;;;;;;20.44;78.05;100846.57;2917982;81;20990;-71
2021/09/01 08:44:28;;;;;;;10.72;8.13;;;;;;;20.57;77.64;100847.34;2858832;83;20975;-71
2021/09/01 08:48:31;;;;;;;7.65;6.45;;;;;;;20.52;78.20;100849.73;2917354;80;21030;-72
2021/09/01 08:52:34;;;;;;;6.37;4.42;;;;;;;20.47;78.75;100861.59;2867984;82;20959;-72
2021/09/01 08:56:36;;;;;;;8.25;5.92;;;;;;;20.54;76.39;100862.56;2917715;81;20947;-72
2021/09/01 09:00:57;;;;;;;9.70;5.05;;;;;;;20.76;78.10;100860.06;2867910;83;20979;-71
2021/09/01 09:05:02;;;;;;;8.38;5.55;;;;;;;20.71;77.08;100862.47;2917230;81;21517;-73
2021/09/01 09:09:12;;;;;;;9.23;6.15;;;;;;;20.55;75.52;100858.84;2866942;83;20975;-72
2021/09/01 09:13:30;;;;;;;7.35;5.37;;;;;;;20.54;76.77;100847.70;2916419;81;20947;-72
2021/09/01 09:17:36;;;;;;;5.58;5.03;;;;;;;20.62;76.02;100851.69;2867840;83;21006;-73
2021/09/01 09:21:45;;;;;;;;;;;;;;;20.80;75.52;100853.30;2870907;82;20971;-72
2021/09/01 09:25:47;;;;;;;6.15;4.20;;;;;;;20.89;76.56;100842.77;2917154;81;20079;-75
2021/09/01 09:29:53;;;;;;;5.12;4.20;;;;;;;20.69;74.14;100851.33;2867574;83;20947;-74
2021/09/01 09:33:54;;;;;;;;;;;;;;;20.63;76.41;100852.55;2919282;81;20963;-72
2021/09/01 09:38:43;;;;;;;6.20;5.00;;;;;;;20.67;75.97;100856.08;2865366;83;20078;-71
2021/09/01 09:42:45;;;;;;;7.65;4.87;;;;;;;20.64;75.21;100853.73;2917320;81;20951;-74
2021/09/01 09:46:48;;;;;;;5.97;4.25;;;;;;;20.71;76.60;100863.81;2868266;82;20975;-71
2021/09/01 09:50:50;;;;;;;7.00;4.85;;;;;;;20.76;74.66;100864.11;2918051;80;21003;-69
2021/09/01 09:55:01;;;;;;;9.38;5.33;;;;;;;20.98;76.44;100871.42;2859334;82;20943;-71
2021/09/01 09:59:03;;;;;;;8.10;5.75;;;;;;;21.15;73.70;100871.30;2916660;81;21038;-73
2021/09/01 10:08:26;;;;;;;6.67;4.87;;;;;;;21.20;74.23;100870.76;2918177;81;20943;-71
2021/09/01 10:12:28;;;;;;;7.22;5.12;;;;;;;21.03;73.74;100876.79;2859080;82;21038;-71
2021/09/01 10:16:35;;;;;;;12.60;5.62;;;;;;;21.16;74.11;100867.56;2918399;81;20951;-72
2021/09/01 10:20:42;;;;;;;10.55;4.37;;;;;;;21.45;75.36;100878.16;2839463;83;20982;-70
2021/09/01 10:24:45;;;;;;;4.90;4.28;;;;;;;21.72;75.25;100874.53;2863715;82;20970;-71
2021/09/01 10:28:59;;;;;;;10.68;5.70;;;;;;;21.74;72.92;100871.65;2918249;80;21543;-71
2021/09/01 10:33:01;;;;;;;6.22;5.03;;;;;;;21.91;72.86;100865.53;2859837;82;21002;-74
2021/09/01 10:37:38;;;;;;;8.38;5.80;;;;;;;22.04;74.28;100861.66;2917651;81;21453;-74
2021/09/01 10:41:59;;;;;;;6.12;4.50;;;;;;;22.11;73.38;100849.03;2803627;85;20996;-71
2021/09/01 10:46:01;;;;;;;5.20;4.12;;;;;;;22.25;72.07;100855.45;2884413;82;20971;-73
2021/09/01 10:50:07;;;;;;;11.63;4.45;;;;;;;22.22;69.69;100862.61;2872362;81;21010;-73
2021/09/01 10:54:40;;;;;;;8.88;4.30;;;;;;;22.15;71.01;100855.42;2857850;83;21014;-75
2021/09/01 10:59:06;;;;;;;6.55;4.78;;;;;;;22.28;71.89;100853.39;2857806;82;20955;-74
2021/09/01 11:03:08;;;;;;;13.88;4.80;;;;;;;22.34;71.51;100856.72;2858353;83;21018;-73
2021/09/01 11:07:10;;;;;;;5.45;4.40;;;;;;;22.19;70.92;100851.30;2858208;83;20978;-72
2021/09/01 11:11:11;;;;;;;6.58;4.70;;;;;;;22.18;69.54;100857.25;2858963;83;20982;-70
2021/09/01 11:15:20;;;;;;;7.12;4.58;;;;;;;22.24;70.45;100857.02;2858855;83;20974;-73
2021/09/01 11:19:22;;;;;;;7.15;5.28;;;;;;;22.24;68.40;100849.70;2819134;82;20999;-75
2021/09/01 11:23:33;;;;;;;6.30;4.42;;;;;;;22.20;70.14;100862.45;2808607;85;20984;-72
2021/09/01 11:27:37;;;;;;;6.80;4.62;;;;;;;22.20;68.18;100858.39;2808320;85;21004;-73
2021/09/01 11:31:44;;;;;;;5.03;4.35;;;;;;;22.34;70.20;100860.25;2808568;83;20961;-71
2021/09/01 11:35:47;;;;;;;7.00;5.53;;;;;;;22.58;67.83;100856.90;2808494;85;20992;-72
2021/09/01 11:40:04;;;;;;;4.72;4.25;;;;;;;22.58;66.61;100860.96;2807990;85;20929;-74
2021/09/01 11:44:08;;;;;;;6.20;4.40;;;;;;;22.59;67.96;100861.28;2808372;85;20988;-74
2021/09/01 11:49:07;;;;;;;6.70;4.15;;;;;;;22.76;67.89;100859.19;2816707;83;20977;-73
2021/09/01 11:57:41;;;;;;;5.25;4.30;;;;;;;22.77;65.28;100863.58;2856667;83;20962;-72
2021/09/01 12:01:52;;;;;;;4.95;3.90;;;;;;;22.91;65.88;100856.95;2857060;83;21016;-72
2021/09/01 12:06:12;;;;;;;6.53;5.40;;;;;;;22.97;63.08;100867.02;2856843;83;20954;-72
2021/09/01 12:10:14;;;;;;;13.00;5.40;;;;;;;22.82;63.16;100863.02;2855722;82;20977;-72
2021/09/01 12:14:23;;;;;;;5.83;4.55;;;;;;;22.65;65.31;100860.55;2857433;83;21012;-70
2021/09/01 12:18:25;;;;;;;5.85;4.72;;;;;;;22.58;65.07;100858.25;2856950;83;20985;-72
2021/09/01 12:22:58;;;;;;;5.00;3.90;;;;;;;22.56;65.43;100864.39;2857159;82;21032;-72
2021/09/01 12:27:09;;;;;;;7.08;4.80;;;;;;;22.66;65.04;100858.16;2857330;83;21025;-72
2021/09/01 12:31:36;;;;;;;7.62;5.65;;;;;;;22.65;63.49;100872.74;2855947;79;20996;-70
2021/09/01 12:39:57;;;;;;;5.47;4.20;;;;;;;22.63;65.45;100872.09;2902241;81;21077;-71
2021/09/01 12:44:01;;;;;;;5.20;4.10;;;;;;;22.61;65.95;100869.24;2903144;82;20951;-70
2021/09/01 12:48:10;;;;;;;5.62;4.33;;;;;;;22.63;63.91;100870.74;2902770;82;21000;-68
2021/09/01 12:57:49;;;;;;;4.53;4.08;;;;;;;23.19;64.73;100870.56;2741983;87;21053;-70
2021/09/01 13:01:51;;;;;;;6.77;4.73;;;;;;;23.13;63.47;100875.92;2766585;83;20947;-68
2021/09/01 13:05:54;;;;;;;6.15;4.20;;;;;;;23.17;63.99;100874.50;2859765;81;21014;-69
2021/09/01 13:09:55;;;;;;;6.03;3.98;;;;;;;23.30;62.97;100874.65;2859638;83;20975;-72
2021/09/01 13:13:57;;;;;;;8.33;5.22;;;;;;;23.31;62.43;100865.47;2859508;83;21039;-69
2021/09/01 13:18:23;;;;;;;9.55;4.12;;;;;;;23.19;63.15;100867.84;2850225;83;21008;-72
2021/09/01 13:22:24;;;;;;;;;;;;;;;23.05;64.08;100868.22;2881798;82;21012;-74
2021/09/01 13:27:02;;;;;;;4.25;3.87;;;;;;;23.04;62.87;100867.91;2876969;82;20077;-74
2021/09/01 13:31:04;;;;;;;3.62;3.27;;;;;;;23.05;64.50;100872.30;2859384;83;21011;-73
2021/09/01 13:35:13;;;;;;;6.47;4.20;;;;;;;23.18;66.54;100871.56;2859346;83;21018;-72
2021/09/01 13:39:15;;;;;;;5.37;3.42;;;;;;;23.27;62.29;100868.77;2845910;82;21446;-72
2021/09/01 13:43:16;;;;;;;4.75;3.77;;;;;;;23.43;63.93;100863.05;2842710;83;21026;-74
2021/09/01 13:47:18;;;;;;;5.53;3.37;;;;;;;23.61;62.88;100852.22;2842806;84;21008;-76
2021/09/01 13:51:19;;;;;;;3.60;3.17;;;;;;;23.69;63.21;100852.05;2842921;84;21006;-73
2021/09/01 13:55:41;;;;;;;5.25;3.83;;;;;;;23.72;63.78;100850.28;2842915;83;21006;-73
2021/09/01 13:59:42;;;;;;;5.30;4.00;;;;;;;23.66;62.54;100853.81;2842945;84;20952;-73
2021/09/01 14:03:47;;;;;;;6.22;3.55;;;;;;;23.66;62.32;100853.81;2842913;84;20924;-72
2021/09/01 14:07:49;;;;;;;5.40;3.47;;;;;;;23.72;62.41;100847.58;2842494;84;21003;-73
2021/09/01 14:12:05;;;;;;;6.62;4.15;;;;;;;23.72;60.91;100845.39;2842765;84;21022;-72
2021/09/01 14:16:07;;;;;;;6.33;3.35;;;;;;;23.71;60.51;100851.33;2842589;84;20979;-75
2021/09/01 14:20:27;;;;;;;5.78;4.05;;;;;;;23.70;61.83;100848.83;2843045;83;20924;-71
2021/09/01 14:24:29;;;;;;;4.60;3.30;;;;;;;23.65;61.21;100846.70;2842882;84;20983;-72
2021/09/01 14:28:32;;;;;;;4.05;3.40;;;;;;;23.58;60.38;100842.58;2842702;84;20963;-73
2021/09/01 14:32:34;;;;;;;4.42;4.03;;;;;;;23.53;61.20;100848.59;2842728;83;20952;-72
2021/09/01 14:37:24;;;;;;;5.60;3.90;;;;;;;23.59;60.71;100846.16;2843142;82;20928;-73
2021/09/01 14:41:37;;;;;;;;;;;;;;;;;;;;;
2021/09/01 14:45:35;;;;;;;6.30;3.25;;;;;;;23.49;60.86;100843.25;2846169;83;20970;-69
2021/09/01 14:49:46;;;;;;;;;;;;;;;23.33;59.95;100842.19;2856639;83;20951;-67
2021/09/01 14:53:50;;;;;;;4.67;3.92;;;;;;;23.08;60.54;100845.30;2850202;83;20089;-68
2021/09/01 14:58:21;;;;;;;7.08;3.90;;;;;;;23.03;63.39;100843.70;2850095;83;21035;-68
2021/09/01 15:02:24;;;;;;;7.62;4.25;;;;;;;23.06;62.19;100840.59;2850184;83;20978;-66
2021/09/01 15:06:26;;;;;;;3.58;3.27;;;;;;;22.94;62.29;100843.81;2850107;83;20999;-67
2021/09/01 15:10:42;;;;;;;5.17;3.90;;;;;;;22.87;62.57;100844.78;2850167;83;20995;-66
2021/09/01 15:14:43;;;;;;;4.60;3.97;;;;;;;22.79;63.52;100841.67;2803105;85;21023;-66
2021/09/01 15:19:01;;;;;;;8.20;4.30;;;;;;;22.79;63.52;100841.67;2821452;83;21407;-68
2021/09/01 15:23:02;;;;;;;4.53;3.20;;;;;;;22.89;64.76;100835.42;2850689;83;20941;-67
2021/09/01 15:27:17;;;;;;;4.80;4.00;;;;;;;23.06;64.95;100832.45;2850123;83;20970;-66
2021/09/01 15:31:20;;;;;;;6.47;3.37;;;;;;;23.13;63.31;100832.52;2850124;83;20974;-67
2021/09/01 15:40:36;;;;;;;4.37;3.87;;;;;;;23.18;62.32;100830.87;2850105;83;20977;-66
2021/09/01 15:45:18;;;;;;;3.87;3.10;;;;;;;23.09;63.17;100832.05;2849550;83;23344;-65
2021/09/01 15:49:27;;;;;;;4.35;3.30;;;;;;;23.00;64.03;100830.00;2849614;83;20938;-65
2021/09/01 15:53:36;;;;;;;4.67;4.07;;;;;;;22.86;64.51;100822.27;2850423;82;20977;-66
2021/09/01 15:57:39;;;;;;;3.90;3.37;;;;;;;22.79;64.37;100825.41;2850143;83;21021;-66
2021/09/01 16:01:53;;;;;;;6.05;3.80;;;;;;;22.78;65.02;100823.73;2850094;82;20973;-66
2021/09/01 16:05:58;;;;;;;4.00;3.10;;;;;;;22.74;65.66;100823.30;2849952;83;20949;-65
2021/09/01 16:10:07;;;;;;;5.93;4.37;;;;;;;22.74;65.68;100821.94;2850396;83;20993;-65
2021/09/01 16:19:33;;;;;;;4.87;3.42;;;;;;;22.73;67.03;100824.84;2850261;83;20939;-64
2021/09/01 16:23:37;;;;;;;3.67;3.37;;;;;;;22.63;67.07;100828.72;2850235;83;20977;-66
2021/09/01 16:27:43;;;;;;;5.50;4.10;;;;;;;22.58;66.92;100827.08;2830197;83;20978;-65
2021/09/01 16:31:47;;;;;;;5.40;4.30;;;;;;;22.52;66.45;100830.56;2807475;83;20993;-68
2021/09/01 16:35:50;;;;;;;5.20;3.72;;;;;;;22.44;67.07;100825.24;2830558;83;20978;-67
2021/09/01 16:39:53;;;;;;;4.78;3.67;;;;;;;22.38;67.64;100826.31;2844118;83;21017;-66
2021/09/01 16:43:55;;;;;;;6.35;4.30;;;;;;;22.29;68.27;100820.70;2842227;84;21009;-65
2021/09/01 16:47:59;;;;;;;5.53;3.37;;;;;;;22.19;68.42;100821.00;2842415;84;21000;-66
2021/09/01 16:52:06;;;;;;;8.35;3.75;;;;;;;22.06;69.21;100820.32;2836288;83;20973;-64
2021/09/01 16:56:12;;;;;;;4.87;3.42;;;;;;;21.96;70.04;100822.47;2842495;84;20996;-64
2021/09/01 17:00:15;;;;;;;;;;;;;;;21.90;71.04;100829.47;2824922;84;20997;-65
2021/09/01 17:04:53;;;;;;;5.12;4.00;;;;;;;21.80;70.67;100833.81;2842493;84;20133;-65
2021/09/01 17:08:55;;;;;;;5.80;4.17;;;;;;;21.69;70.84;100828.88;2842446;84;20965;-66
2021/09/01 17:13:12;;;;;;;8.08;3.45;;;;;;;21.51;71.28;100842.23;2842452;84;20966;-65
2021/09/01 17:17:15;;;;;;;4.30;3.30;;;;;;;21.43;71.68;100844.17;2842248;84;21028;-65
2021/09/01 17:21:23;;;;;;;6.22;3.52;;;;;;;21.31;72.60;100835.13;2842464;84;21028;-66
2021/09/01 17:25:52;;;;;;;4.97;3.62;;;;;;;21.19;72.59;100844.20;2842273;84;21068;-66
2021/09/01 17:30:08;;;;;;;4.70;4.00;;;;;;;21.06;72.68;100846.70;2799251;84;21044;-61
2021/09/01 17:34:14;;;;;;;5.33;3.08;;;;;;;20.91;73.24;100846.63;2842548;83;20966;-66
2021/09/01 17:39:14;;;;;;;7.17;4.20;;;;;;;20.74;73.58;100844.53;2833863;83;20999;-65
2021/09/01 17:43:17;;;;;;;8.40;4.00;;;;;;;20.59;74.39;100848.00;2816335;84;20927;-67
2021/09/01 17:47:22;;;;;;;5.28;3.98;;;;;;;20.44;75.10;100856.52;2816758;84;20955;-73
2021/09/01 17:52:12;;;;;;;5.58;4.12;;;;;;;20.32;76.01;100862.34;2817279;83;21045;-72
2021/09/01 17:56:15;;;;;;;5.70;4.53;;;;;;;20.25;76.58;100860.84;2817018;83;20982;-72
2021/09/01 18:00:18;;;;;;;9.18;5.70;;;;;;;20.08;76.77;100860.08;2817048;84;20931;-71
2021/09/01 18:04:19;;;;;;;8.13;5.80;;;;;;;20.05;78.48;100869.89;2817021;84;20959;-70
2021/09/01 18:08:23;;;;;;;4.50;3.95;;;;;;;19.93;78.75;100884.77;2817038;84;20943;-75
2021/09/01 18:12:26;;;;;;;5.08;4.33;;;;;;;19.81;79.09;100885.09;2817087;83;20959;-73
2021/09/01 18:16:48;;;;;;;7.03;4.25;;;;;;;19.76;79.70;100894.73;2817083;84;20959;-72
2021/09/01 18:20:50;;;;;;;6.87;4.70;;;;;;;19.69;79.87;100894.58;2817085;83;20983;-72
2021/09/01 18:24:52;;;;;;;9.43;7.28;;;;;;;19.66;80.96;100905.72;2817140;84;20959;-73
2021/09/01 18:29:19;;;;;;;10.10;6.17;;;;;;;19.61;81.79;100913.45;2816989;84;20990;-75
2021/09/01 18:33:21;;;;;;;13.62;6.75;;;;;;;19.52;82.06;100909.92;2817150;84;20947;-72
2021/09/01 18:37:25;;;;;;;13.72;8.10;;;;;;;19.39;82.37;100912.64;2817182;84;20971;-72
2021/09/01 18:41:30;;;;;;;8.48;6.15;;;;;;;19.34;82.70;100912.81;2825484;84;20954;-72
2021/09/01 18:50:47;;;;;;;5.70;3.85;;;;;;;19.05;83.02;100923.55;2826065;84;21004;-70
2021/09/01 18:54:49;;;;;;;4.10;3.60;;;;;;;18.61;84.78;100926.79;2804598;84;21056;-71
2021/09/01 18:58:51;;;;;;;5.28;4.03;;;;;;;18.40;86.03;100928.06;2826157;83;20996;-71
2021/09/01 19:02:57;;;;;;;11.88;5.83;;;;;;;18.28;87.22;100941.48;2825833;84;20999;-70
2021/09/01 19:07:18;;;;;;;7.25;4.95;;;;;;;18.09;88.05;100946.59;2826988;83;20976;-70
2021/09/01 19:11:22;;;;;;;8.93;5.80;;;;;;;17.96;89.34;100950.50;2822861;84;20935;-70
2021/09/01 19:15:43;;;;;;;7.25;6.03;;;;;;;17.91;90.33;100952.00;2831892;84;20942;-71
2021/09/01 19:19:46;;;;;;;9.93;6.83;;;;;;;17.93;91.05;100954.03;2826245;84;20947;-70
2021/09/01 19:24:29;;;;;;;9.60;5.80;;;;;;;17.98;91.57;100960.63;2826227;84;20942;-70
2021/09/01 19:28:31;;;;;;;10.70;6.10;;;;;;;18.00;91.91;100960.46;2826097;83;20943;-70
2021/09/01 19:32:33;;;;;;;8.00;5.90;;;;;;;17.96;92.10;100964.48;2808199;84;20951;-71
2021/09/01 19:36:35;;;;;;;8.13;6.53;;;;;;;17.90;92.37;100965.12;2826036;84;20967;-77
2021/09/01 19:40:53;;;;;;;7.35;5.80;;;;;;;17.85;92.69;100977.17;2818888;83;20955;-74
2021/09/01 19:44:56;;;;;;;7.08;5.67;;;;;;;17.84;92.47;100977.34;2817265;84;21007;-71
2021/09/01 19:49:13;;;;;;;11.48;7.30;;;;;;;17.81;92.58;100977.67;2817279;83;21046;-73
2021/09/01 19:53:16;;;;;;;8.60;6.80;;;;;;;17.74;92.95;100977.92;2816977;84;20930;-78
2021/09/01 19:57:49;;;;;;;10.40;7.30;;;;;;;17.67;93.55;100979.91;2817345;84;20963;-73
2021/09/01 20:01:53;;;;;;;9.68;7.95;;;;;;;17.59;93.95;100988.41;2817127;84;20959;-75
2021/09/01 20:06:18;;;;;;;12.70;7.53;;;;;;;17.47;94.72;100991.31;2817192;83;20974;-71